Time;durP1;ratioP1;P1;durP2;ratioP2;P2;SDS_P1;SDS_P2;PMS_P1;PMS_P2;Temp;Humidity;BMP_temperature;BMP_pressure;BME280_temperature;BME280_humidity;BME280_pressure;Samples;Min_cycle;Max_cycle;Signal;HPM_P1;HPM_P2
2022/08/06 00:01:32;;;;;;;2.47;2.22;;;21.30;83.90;;;;;;4178049;28;20082;-65
2022/08/06 00:03:33;;;;;;;5.13;3.00;;;21.30;84.10;;;;;;4178571;28;20025;-63
2022/08/06 00:05:34;;;;;;;8.55;3.28;;;21.20;84.40;;;;;;4177928;28;20083;-64
2022/08/06 00:07:36;;;;;;;3.78;2.33;;;21.10;84.70;;;;;;4177654;28;20167;-65
2022/08/06 00:09:37;;;;;;;3.78;2.22;;;21.10;84.80;;;;;;4178172;28;20077;-64
2022/08/06 00:11:41;;;;;;;3.78;2.08;;;21.00;84.90;;;;;;4177393;28;20083;-64
2022/08/06 00:13:42;;;;;;;3.63;2.28;;;21.10;85.10;;;;;;4178200;28;20040;-68
2022/08/06 00:15:43;;;;;;;2.30;1.98;;;21.00;85.30;;;;;;4177492;28;20107;-65
2022/08/06 00:17:45;;;;;;;3.35;2.10;;;20.90;85.50;;;;;;4178844;28;20810;-63
2022/08/06 00:19:46;;;;;;;2.15;1.92;;;20.80;85.70;;;;;;4177293;28;20029;-64
2022/08/06 00:21:48;;;;;;;3.95;2.10;;;20.80;86.10;;;;;;4178781;28;20037;-63
2022/08/06 00:23:49;;;;;;;4.32;2.40;;;20.80;86.20;;;;;;4177020;28;20098;-64
2022/08/06 00:25:52;;;;;;;5.50;2.25;;;20.80;86.30;;;;;;4178684;28;20416;-64
2022/08/06 00:27:53;;;;;;;4.35;2.08;;;20.80;86.40;;;;;;4177250;28;20040;-64
2022/08/06 00:29:54;;;;;;;3.17;2.13;;;20.80;86.30;;;;;;4178458;28;20447;-69
2022/08/06 00:31:56;;;;;;;2.83;2.03;;;20.80;86.30;;;;;;4176927;28;20040;-67
2022/08/06 00:34:00;;;;;;;2.30;2.10;;;20.80;86.30;;;;;;4178024;28;20029;-71
2022/08/06 00:38:12;;;;;;;2.72;2.15;;;20.70;86.20;;;;;;4509731;22;20160;-68
2022/08/06 00:40:15;;;;;;;2.58;2.20;;;20.70;86.30;;;;;;4168888;28;20492;-71
2022/08/06 00:42:16;;;;;;;3.47;1.83;;;20.70;87.00;;;;;;4178741;28;20074;-63
2022/08/06 00:44:17;;;;;;;2.70;2.40;;;20.60;86.40;;;;;;4177170;28;20033;-71
2022/08/06 00:46:19;;;;;;;3.58;2.45;;;20.60;86.60;;;;;;4177496;28;20041;-62
2022/08/06 00:48:20;;;;;;;3.05;2.13;;;20.60;86.80;;;;;;4176774;28;20095;-63
2022/08/06 00:50:21;;;;;;;2.55;1.73;;;20.60;86.90;;;;;;4176154;28;20037;-69
2022/08/06 00:52:22;;;;;;;3.88;2.10;;;20.50;87.00;;;;;;4177679;28;20025;-63
2022/08/06 00:54:23;;;;;;;2.42;2.22;;;20.50;87.10;;;;;;4176527;28;20037;-63
2022/08/06 00:56:25;;;;;;;4.28;2.17;;;20.50;87.10;;;;;;4177700;28;20041;-63
2022/08/06 00:58:26;;;;;;;5.03;2.05;;;20.50;87.20;;;;;;4177194;28;20435;-63
2022/08/06 01:00:27;;;;;;;3.88;2.10;;;20.40;87.40;;;;;;4178144;28;20435;-63
2022/08/06 01:02:28;;;;;;;1.92;1.83;;;20.40;87.50;;;;;;4172200;28;20046;-65
2022/08/06 01:04:29;;;;;;;7.07;1.80;;;20.40;87.70;;;;;;4161383;28;20045;-63
2022/08/06 01:06:31;;;;;;;1.90;1.80;;;20.40;87.60;;;;;;4160007;28;20481;-64
2022/08/06 01:08:32;;;;;;;1.88;1.77;;;20.40;87.60;;;;;;4161828;28;20029;-64
2022/08/06 01:10:33;;;;;;;2.70;1.90;;;20.40;87.70;;;;;;4159971;28;20091;-64
2022/08/06 01:12:34;;;;;;;2.63;2.10;;;20.30;87.70;;;;;;4161243;28;20037;-69
2022/08/06 01:14:35;;;;;;;2.08;1.80;;;20.30;87.60;;;;;;4159978;28;20095;-63
2022/08/06 01:16:43;;;;;;;2.33;2.13;;;20.30;87.80;;;;;;4161065;28;20080;-72
2022/08/06 01:19:01;;;;;;;2.42;1.90;;;20.30;87.90;;;;;;4159691;28;20481;-69
2022/08/06 01:21:08;;;;;;;2.03;1.90;;;20.30;87.90;;;;;;4161394;28;20432;-63
2022/08/06 01:23:30;;;;;;;2.47;2.10;;;20.30;87.90;;;;;;4162904;28;20466;-64
2022/08/06 01:25:44;;;;;;;2.15;1.98;;;20.30;88.10;;;;;;4177833;28;20435;-63
2022/08/06 01:28:07;;;;;;;2.25;2.05;;;20.30;88.10;;;;;;4179507;28;20041;-66
2022/08/06 01:30:12;;;;;;;3.05;2.25;;;20.20;88.90;;;;;;4181362;28;20094;-63
2022/08/06 01:32:22;;;;;;;9.75;4.00;;;20.10;88.90;;;;;;4179926;28;20032;-63
2022/08/06 01:34:49;;;;;;;6.63;2.70;;;20.00;89.60;;;;;;4180783;28;20542;-62
2022/08/06 01:36:58;;;;;;;4.70;2.20;;;19.90;90.70;;;;;;4165879;28;20119;-64
2022/08/06 01:39:01;;;;;;;2.40;2.20;;;19.80;90.50;;;;;;4180851;28;20569;-65
2022/08/06 01:41:06;;;;;;;4.95;2.20;;;19.60;90.60;;;;;;4180072;28;20476;-63
2022/08/06 01:43:11;;;;;;;7.80;2.22;;;19.60;90.90;;;;;;4180837;28;20036;-72
2022/08/06 01:45:17;;;;;;;4.47;1.85;;;19.60;91.10;;;;;;4179937;28;20086;-65
2022/08/06 01:47:20;;;;;;;2.22;2.03;;;19.50;91.20;;;;;;4176002;28;20077;-63
2022/08/06 01:49:25;;;;;;;5.20;2.13;;;19.40;91.40;;;;;;4163444;28;20037;-63
2022/08/06 01:51:27;;;;;;;3.72;2.10;;;19.40;91.70;;;;;;4164522;28;20091;-64
2022/08/06 01:53:33;;;;;;;5.78;2.20;;;19.40;91.80;;;;;;4163271;28;20026;-64
2022/08/06 01:55:41;;;;;;;5.57;2.33;;;19.30;92.00;;;;;;4163808;28;20045;-73
2022/08/06 01:57:51;;;;;;;2.88;1.98;;;19.30;92.20;;;;;;4163255;28;20017;-69
2022/08/06 01:59:55;;;;;;;2.28;2.08;;;19.30;92.40;;;;;;4164157;28;20423;-68
2022/08/06 02:01:58;;;;;;;2.85;2.08;;;19.20;92.40;;;;;;4177773;28;20033;-63
2022/08/06 02:04:01;;;;;;;4.32;2.13;;;19.20;92.60;;;;;;4179889;28;20094;-65
2022/08/06 02:06:05;;;;;;;5.35;2.25;;;19.30;92.70;;;;;;4180029;28;20088;-67
2022/08/06 02:08:11;;;;;;;5.78;2.30;;;19.20;92.70;;;;;;4180049;28;20439;-63
2022/08/06 02:10:16;;;;;;;4.22;2.00;;;19.30;92.70;;;;;;4174420;28;20026;-64
2022/08/06 02:12:25;;;;;;;3.88;2.55;;;19.30;92.70;;;;;;4162847;28;20045;-64
2022/08/06 02:14:31;;;;;;;6.75;2.40;;;19.20;93.30;;;;;;4163609;28;20037;-63
2022/08/06 02:16:37;;;;;;;6.47;1.92;;;19.10;93.60;;;;;;4162550;28;20448;-63
2022/08/06 02:18:44;;;;;;;3.22;2.00;;;18.90;93.80;;;;;;4163812;28;20056;-64
2022/08/06 02:20:50;;;;;;;2.63;2.10;;;18.80;94.10;;;;;;4162998;28;20075;-69
2022/08/06 02:22:53;;;;;;;3.55;2.15;;;18.80;94.20;;;;;;4162755;28;20049;-63
2022/08/06 02:24:56;;;;;;;6.18;3.20;;;18.70;94.50;;;;;;4163367;28;20041;-63
2022/08/06 02:27:00;;;;;;;4.20;2.92;;;18.70;94.80;;;;;;4163815;28;20079;-63
2022/08/06 02:29:04;;;;;;;3.53;2.58;;;18.60;95.20;;;;;;4162816;28;20080;-63
2022/08/06 02:31:05;;;;;;;5.07;2.95;;;18.50;95.50;;;;;;4163947;28;20034;-63
2022/08/06 02:33:07;;;;;;;5.70;2.70;;;18.50;95.90;;;;;;4168164;28;20083;-63
2022/08/06 02:35:10;;;;;;;3.95;2.97;;;18.40;96.20;;;;;;4179860;28;20894;-64
2022/08/06 02:37:16;;;;;;;5.35;3.03;;;18.40;96.30;;;;;;4179114;28;20021;-63
2022/08/06 02:39:29;;;;;;;4.60;2.83;;;18.30;96.50;;;;;;4180685;28;20048;-64
2022/08/06 02:41:50;;;;;;;8.95;3.63;;;18.40;96.60;;;;;;4179014;28;20041;-64
2022/08/06 02:43:56;;;;;;;2.85;2.47;;;18.30;96.90;;;;;;4180224;28;20025;-64
2022/08/06 02:46:13;;;;;;;2.45;2.25;;;18.30;97.30;;;;;;4178324;28;20087;-63
2022/08/06 02:48:30;;;;;;;4.35;2.47;;;18.20;98.10;;;;;;4179598;28;20840;-64
2022/08/06 02:50:38;;;;;;;4.35;2.95;;;18.20;98.10;;;;;;4177900;28;20033;-63
2022/08/06 02:52:44;;;;;;;3.03;2.35;;;18.20;98.00;;;;;;4179164;28;20114;-63
2022/08/06 02:54:59;;;;;;;5.32;2.10;;;18.30;98.00;;;;;;4178929;28;20037;-64
2022/08/06 02:57:04;;;;;;;2.55;2.33;;;18.30;98.40;;;;;;4164379;28;20025;-69
2022/08/06 02:59:07;;;;;;;3.00;2.30;;;18.30;98.10;;;;;;4162477;28;20079;-66
2022/08/06 03:01:12;;;;;;;2.45;2.25;;;18.30;98.10;;;;;;4162528;28;20037;-70
2022/08/06 03:03:15;;;;;;;2.50;2.30;;;18.30;98.10;;;;;;4161622;28;20084;-64
2022/08/06 03:05:19;;;;;;;3.38;2.40;;;18.40;98.30;;;;;;4163448;28;20037;-63
2022/08/06 03:07:22;;;;;;;5.78;2.20;;;18.40;98.30;;;;;;4162050;28;20461;-70
2022/08/06 03:09:23;;;;;;;3.78;2.38;;;18.40;98.50;;;;;;4163030;28;20107;-63
2022/08/06 03:11:25;;;;;;;6.20;2.17;;;18.40;98.60;;;;;;4161914;28;20106;-63
2022/08/06 03:13:28;;;;;;;4.20;3.05;;;18.40;98.80;;;;;;4163313;28;20477;-63
2022/08/06 03:15:31;;;;;;;5.70;2.85;;;18.40;99.00;;;;;;4161310;28;20037;-62
2022/08/06 03:17:34;;;;;;;3.83;2.65;;;18.40;99.20;;;;;;4162841;28;20022;-62
2022/08/06 03:19:37;;;;;;;4.57;2.58;;;18.40;99.50;;;;;;4162304;28;20404;-63
2022/08/06 03:21:39;;;;;;;4.50;2.40;;;18.40;99.60;;;;;;4162619;28;20013;-63
2022/08/06 03:23:42;;;;;;;5.15;3.22;;;18.30;99.90;;;;;;4168523;28;20144;-67
2022/08/06 03:25:44;;;;;;;6.20;2.40;;;18.30;99.90;;;;;;4178243;28;20037;-63
2022/08/06 03:27:47;;;;;;;5.28;2.88;;;18.40;99.90;;;;;;4178554;28;20037;-63
2022/08/06 03:29:49;;;;;;;3.15;2.63;;;18.60;99.90;;;;;;4178255;28;20033;-62
2022/08/06 03:31:51;;;;;;;5.68;2.88;;;18.80;99.70;;;;;;4179340;28;20467;-62
2022/08/06 03:33:53;;;;;;;6.90;2.95;;;19.00;99.40;;;;;;4178405;28;20435;-63
2022/08/06 03:35:56;;;;;;;3.55;2.58;;;19.20;99.20;;;;;;4179396;28;20526;-62
2022/08/06 03:37:58;;;;;;;4.15;2.58;;;19.30;99.20;;;;;;4176558;28;20459;-63
2022/08/06 03:40:02;;;;;;;4.22;2.60;;;19.40;99.10;;;;;;4178707;28;20041;-64
2022/08/06 03:42:03;;;;;;;3.42;2.22;;;19.70;98.80;;;;;;4178044;28;20427;-62
2022/08/06 03:44:05;;;;;;;2.97;2.13;;;20.10;98.20;;;;;;4178276;28;20055;-63
2022/08/06 03:46:08;;;;;;;4.20;2.30;;;20.50;97.40;;;;;;4177272;28;20111;-63
2022/08/06 03:48:15;;;;;;;4.97;2.20;;;20.80;96.60;;;;;;4179264;28;20017;-63
2022/08/06 03:50:21;;;;;;;8.07;2.63;;;21.20;96.00;;;;;;4169952;28;20489;-63
2022/08/06 03:52:27;;;;;;;3.60;2.20;;;21.60;95.30;;;;;;4162162;28;20448;-65
2022/08/06 03:54:40;;;;;;;5.78;2.38;;;22.00;94.60;;;;;;4160629;28;20111;-64
2022/08/06 03:56:43;;;;;;;3.17;1.92;;;22.20;94.30;;;;;;4161728;28;20084;-64
2022/08/06 03:58:46;;;;;;;3.60;2.28;;;22.50;93.70;;;;;;4161336;28;20092;-64
2022/08/06 04:01:01;;;;;;;4.55;2.03;;;22.90;93.10;;;;;;4161465;28;20046;-64
2022/08/06 04:03:04;;;;;;;4.15;2.55;;;23.20;92.50;;;;;;4161403;28;20029;-64
2022/08/06 04:05:07;;;;;;;3.40;2.28;;;23.50;92.10;;;;;;4162125;28;20030;-63
2022/08/06 04:07:09;;;;;;;3.50;1.95;;;24.00;91.60;;;;;;4160737;28;20462;-64
2022/08/06 04:09:11;;;;;;;5.15;2.50;;;24.50;91.00;;;;;;4162053;28;20083;-64
2022/08/06 04:11:13;;;;;;;5.35;2.40;;;24.90;90.30;;;;;;4161817;28;20017;-66
2022/08/06 04:13:20;;;;;;;6.90;2.50;;;25.20;89.50;;;;;;4161602;28;20466;-68
2022/08/06 04:15:22;;;;;;;6.03;2.65;;;25.50;88.50;;;;;;4162046;28;20622;-64
2022/08/06 04:17:26;;;;;;;5.45;2.53;;;25.90;88.00;;;;;;4161484;28;20038;-62
2022/08/06 04:19:28;;;;;;;5.78;2.45;;;26.20;86.90;;;;;;4178661;28;20033;-63
2022/08/06 04:21:29;;;;;;;5.43;2.67;;;26.20;86.10;;;;;;4177413;28;20802;-64
2022/08/06 04:23:31;;;;;;;4.40;2.45;;;26.50;85.60;;;;;;4178531;28;20048;-64
2022/08/06 04:25:38;;;;;;;7.95;2.83;;;26.40;84.90;;;;;;4177623;28;20086;-63
2022/08/06 04:27:42;;;;;;;6.57;2.35;;;26.60;84.40;;;;;;4177648;28;20071;-63
2022/08/06 04:29:44;;;;;;;8.82;2.80;;;26.90;83.70;;;;;;4176716;28;20052;-64
2022/08/06 04:31:50;;;;;;;4.35;2.40;;;26.90;83.00;;;;;;4178512;28;20087;-64
2022/08/06 04:33:54;;;;;;;7.80;2.33;;;26.70;82.70;;;;;;4159322;28;20132;-63
2022/08/06 04:35:55;;;;;;;6.35;2.40;;;26.70;82.80;;;;;;4177514;28;20037;-67
2022/08/06 04:37:58;;;;;;;5.78;2.38;;;27.10;82.30;;;;;;4176153;28;20500;-63
2022/08/06 04:40:00;;;;;;;4.05;2.20;;;27.40;81.40;;;;;;4177656;28;20036;-63
2022/08/06 04:42:02;;;;;;;7.93;2.67;;;27.80;80.60;;;;;;4177100;28;20078;-64
2022/08/06 04:44:03;;;;;;;4.78;2.22;;;28.10;79.60;;;;;;4167577;28;20049;-63
2022/08/06 04:46:05;;;;;;;5.32;2.42;;;28.10;79.20;;;;;;4160886;28;20143;-64
2022/08/06 04:48:09;;;;;;;6.55;3.08;;;28.10;78.90;;;;;;4161329;28;20469;-64
2022/08/06 04:50:10;;;;;;;3.28;2.53;;;28.30;78.30;;;;;;4161114;28;20724;-63
2022/08/06 04:52:30;;;;;;;7.30;3.05;;;28.80;77.60;;;;;;4160613;28;20103;-64
2022/08/06 04:54:31;;;;;;;8.85;2.33;;;29.40;75.90;;;;;;4160756;28;20021;-65
2022/08/06 04:56:32;;;;;;;6.72;2.80;;;30.00;75.50;;;;;;4159359;28;20037;-64
2022/08/06 04:58:34;;;;;;;4.40;2.35;;;30.40;74.60;;;;;;4161226;28;20095;-70
2022/08/06 05:00:38;;;;;;;4.90;2.30;;;30.60;74.60;;;;;;4161348;28;20030;-69
2022/08/06 05:02:39;;;;;;;8.48;2.65;;;30.80;73.00;;;;;;4161428;28;20029;-64
2022/08/06 05:04:42;;;;;;;5.65;2.08;;;31.10;72.20;;;;;;4160433;28;20075;-65
2022/08/06 05:06:55;;;;;;;6.32;2.20;;;31.40;71.40;;;;;;4161560;28;20466;-64
2022/08/06 05:09:13;;;;;;;4.28;1.80;;;31.60;70.20;;;;;;4160495;28;20042;-64
2022/08/06 05:11:35;;;;;;;4.68;1.88;;;31.80;69.50;;;;;;4165853;28;20412;-65
2022/08/06 05:13:39;;;;;;;2.35;1.63;;;32.00;68.80;;;;;;4176831;28;20041;-63
2022/08/06 05:15:44;;;;;;;2.58;1.50;;;32.20;68.60;;;;;;4177895;28;20021;-64
2022/08/06 05:17:49;;;;;;;3.63;1.50;;;32.10;67.60;;;;;;4176647;28;20029;-64
2022/08/06 05:19:57;;;;;;;3.85;1.33;;;32.10;67.20;;;;;;4177434;28;20045;-63
2022/08/06 05:21:59;;;;;;;3.10;1.38;;;32.00;66.50;;;;;;4176723;28;20349;-64
2022/08/06 05:24:02;;;;;;;1.55;1.42;;;32.20;66.70;;;;;;4177097;28;20425;-69
2022/08/06 05:26:03;;;;;;;3.38;1.40;;;32.30;65.90;;;;;;4175523;28;20028;-64
2022/08/06 05:28:08;;;;;;;3.22;1.15;;;32.40;65.40;;;;;;4177278;28;20563;-64
2022/08/06 05:30:10;;;;;;;1.75;1.30;;;32.80;64.60;;;;;;4175911;28;20091;-64
2022/08/06 05:32:11;;;;;;;1.27;1.17;;;33.00;64.10;;;;;;4177280;28;20456;-64
2022/08/06 05:34:13;;;;;;;3.70;1.67;;;33.20;63.60;;;;;;4164524;28;20072;-63
2022/08/06 05:36:14;;;;;;;1.90;1.70;;;33.30;63.50;;;;;;4161207;28;20029;-64
2022/08/06 05:38:15;;;;;;;1.40;1.30;;;33.20;63.00;;;;;;4159501;28;20096;-65
2022/08/06 05:40:16;;;;;;;3.67;1.40;;;33.30;62.80;;;;;;4175010;28;20033;-63
2022/08/06 05:42:17;;;;;;;4.82;1.45;;;33.30;62.60;;;;;;4175965;28;20033;-65
2022/08/06 05:44:18;;;;;;;3.40;1.55;;;33.50;62.20;;;;;;4177073;28;20464;-64
2022/08/06 05:46:22;;;;;;;3.83;1.60;;;33.70;62.10;;;;;;4177214;28;20075;-64
2022/08/06 05:48:24;;;;;;;2.33;1.52;;;34.10;61.80;;;;;;4176455;28;20025;-63
2022/08/06 05:50:32;;;;;;;5.10;1.60;;;34.40;61.20;;;;;;4177128;28;20103;-64
2022/08/06 05:52:38;;;;;;;3.70;1.95;;;34.30;61.00;;;;;;4176350;28;20441;-65
2022/08/06 05:54:52;;;;;;;2.70;1.77;;;34.20;61.10;;;;;;4176869;28;20053;-65
2022/08/06 05:57:03;;;;;;;2.50;1.75;;;33.90;60.90;;;;;;4166193;28;20033;-64
2022/08/06 05:59:19;;;;;;;2.70;2.00;;;33.90;61.10;;;;;;4160883;28;20029;-64
2022/08/06 06:01:21;;;;;;;8.38;1.67;;;34.40;60.10;;;;;;4160358;28;20083;-64
2022/08/06 06:03:23;;;;;;;3.00;1.67;;;34.60;60.30;;;;;;4175608;28;20466;-65
2022/08/06 06:05:25;;;;;;;3.22;2.17;;;34.60;59.90;;;;;;4176281;28;20458;-69
2022/08/06 06:07:26;;;;;;;2.88;1.70;;;34.40;60.30;;;;;;4176920;28;20546;-64
2022/08/06 06:09:28;;;;;;;6.47;2.30;;;34.50;60.30;;;;;;4178931;28;20045;-64
2022/08/06 06:11:31;;;;;;;3.45;2.25;;;34.30;60.00;;;;;;4180178;28;20397;-65
2022/08/06 06:13:32;;;;;;;10.60;2.72;;;33.10;61.00;;;;;;4178813;28;20049;-64
2022/08/06 06:15:42;;;;;;;3.83;2.42;;;32.10;62.40;;;;;;4180314;28;20545;-64
2022/08/06 06:17:49;;;;;;;6.50;2.50;;;31.90;62.90;;;;;;4178529;28;20102;-68
2022/08/06 06:20:04;;;;;;;4.70;2.45;;;31.60;62.90;;;;;;4180114;28;20029;-65
2022/08/06 06:22:27;;;;;;;9.60;2.47;;;31.10;63.30;;;;;;4173730;28;20029;-65
2022/08/06 06:24:31;;;;;;;6.57;3.20;;;30.30;64.40;;;;;;4163246;28;20099;-65
2022/08/06 06:26:52;;;;;;;5.95;3.03;;;30.20;65.10;;;;;;4162528;28;20026;-64
2022/08/06 06:29:18;;;;;;;10.60;3.50;;;30.60;65.10;;;;;;4163639;28;20656;-66
2022/08/06 06:31:48;;;;;;;7.43;2.75;;;31.20;64.40;;;;;;4161750;28;20041;-64
2022/08/06 06:34:02;;;;;;;9.60;3.00;;;31.50;64.00;;;;;;4160627;28;20053;-64
2022/08/06 06:36:15;;;;;;;9.48;3.83;;;32.00;63.70;;;;;;4162674;28;20029;-64
2022/08/06 06:38:36;;;;;;;10.27;2.72;;;31.80;63.40;;;;;;4162238;28;20099;-64
2022/08/06 06:41:05;;;;;;;11.77;3.22;;;31.20;64.40;;;;;;4163167;28;20456;-64
2022/08/06 06:43:22;;;;;;;9.20;2.90;;;30.50;64.90;;;;;;4160627;28;20038;-64
2022/08/06 06:45:34;;;;;;;11.45;3.10;;;29.60;66.90;;;;;;4162755;28;20037;-68
2022/08/06 06:47:43;;;;;;;14.48;3.10;;;29.30;67.10;;;;;;4161495;28;20034;-64
2022/08/06 06:50:07;;;;;;;12.20;3.55;;;29.10;67.50;;;;;;4165532;28;20057;-69
2022/08/06 06:52:34;;;;;;;13.02;2.90;;;29.10;67.70;;;;;;4177949;28;20374;-65
2022/08/06 06:54:40;;;;;;;9.75;2.92;;;28.80;68.50;;;;;;4166874;28;20063;-65
2022/08/06 06:56:45;;;;;;;8.95;3.03;;;28.60;68.50;;;;;;4176766;28;20037;-66
2022/08/06 06:59:18;;;;;;;9.68;2.40;;;28.60;68.80;;;;;;4179288;28;20070;-65
2022/08/06 07:01:20;;;;;;;5.72;2.60;;;28.50;69.60;;;;;;4177430;28;20106;-63
2022/08/06 07:03:23;;;;;;;4.97;2.97;;;28.50;69.20;;;;;;4178955;28;20177;-66
2022/08/06 07:05:25;;;;;;;12.38;2.83;;;28.70;69.10;;;;;;4177546;28;20082;-67
2022/08/06 07:07:29;;;;;;;8.02;2.70;;;28.90;68.80;;;;;;4177838;28;20092;-62
2022/08/06 07:09:33;;;;;;;6.03;3.20;;;29.10;68.70;;;;;;4177147;28;20075;-69
2022/08/06 07:11:35;;;;;;;6.20;3.15;;;29.00;68.80;;;;;;4178703;28;20035;-68
2022/08/06 07:13:38;;;;;;;7.95;2.80;;;29.00;68.80;;;;;;4175803;28;20037;-64
2022/08/06 07:15:41;;;;;;;6.03;3.15;;;28.90;69.00;;;;;;4178675;28;20025;-65
2022/08/06 07:17:44;;;;;;;4.55;2.58;;;28.40;69.50;;;;;;4172230;28;20037;-63
2022/08/06 07:19:48;;;;;;;7.40;3.55;;;28.50;69.70;;;;;;4160954;28;20045;-63
2022/08/06 07:21:49;;;;;;;9.18;2.55;;;28.70;69.40;;;;;;4160746;28;20022;-63
2022/08/06 07:23:52;;;;;;;5.57;3.75;;;29.20;69.00;;;;;;4161954;28;20048;-67
2022/08/06 07:25:55;;;;;;;5.80;2.88;;;29.60;68.70;;;;;;4170394;28;20144;-63
2022/08/06 07:27:56;;;;;;;3.28;2.30;;;30.10;68.80;;;;;;4161793;28;20428;-64
2022/08/06 07:29:58;;;;;;;4.22;2.47;;;30.10;67.90;;;;;;4165384;28;20045;-63
2022/08/06 07:32:00;;;;;;;3.25;2.60;;;29.90;68.10;;;;;;4166922;28;20465;-74
2022/08/06 07:34:03;;;;;;;4.03;2.28;;;29.90;68.30;;;;;;4158950;28;20033;-63
2022/08/06 07:36:05;;;;;;;7.13;2.58;;;29.70;68.40;;;;;;4162541;28;20091;-65
2022/08/06 07:38:09;;;;;;;4.78;2.13;;;29.30;68.70;;;;;;4161898;28;20077;-63
2022/08/06 07:40:25;;;;;;;7.32;2.83;;;29.40;69.70;;;;;;4144747;28;20026;-65
2022/08/06 07:42:28;;;;;;;4.40;2.50;;;29.50;68.90;;;;;;4157289;28;20032;-69
2022/08/06 07:44:32;;;;;;;4.00;2.60;;;29.80;68.50;;;;;;4158629;28;21682;-64
2022/08/06 07:46:41;;;;;;;7.55;1.90;;;29.80;68.40;;;;;;4161829;28;20037;-64
2022/08/06 07:48:47;;;;;;;6.85;2.70;;;29.80;68.40;;;;;;4161426;28;20768;-62
2022/08/06 07:50:51;;;;;;;6.20;2.47;;;29.80;68.40;;;;;;4161059;28;20098;-61
2022/08/06 07:52:54;;;;;;;8.68;2.55;;;29.50;68.80;;;;;;4159707;28;20034;-72
2022/08/06 07:54:56;;;;;;;5.63;2.28;;;29.60;69.00;;;;;;4164681;28;20033;-64
2022/08/06 07:56:58;;;;;;;4.50;2.53;;;29.70;69.10;;;;;;4159003;28;20029;-63
2022/08/06 07:59:00;;;;;;;2.15;1.98;;;30.30;68.90;;;;;;4162154;28;20075;-65
2022/08/06 08:01:02;;;;;;;5.18;2.65;;;30.70;68.10;;;;;;4164412;28;20539;-62
2022/08/06 08:07:45;;;;;;;7.10;2.60;;;30.70;67.00;;;;;;4166089;28;20087;-62
2022/08/06 08:09:48;;;;;;;4.55;2.38;;;30.50;67.40;;;;;;4162730;28;20661;-65
2022/08/06 08:11:50;;;;;;;6.45;2.83;;;30.30;68.00;;;;;;4164857;28;20041;-66
2022/08/06 08:13:53;;;;;;;3.53;2.70;;;30.30;68.30;;;;;;4143554;28;20096;-70
2022/08/06 08:15:55;;;;;;;3.13;2.17;;;30.30;68.60;;;;;;4166839;28;20041;-70
2022/08/06 08:17:57;;;;;;;3.05;2.50;;;30.30;68.70;;;;;;4165475;28;20813;-66
2022/08/06 08:20:09;;;;;;;3.40;2.40;;;30.40;68.90;;;;;;4164326;28;20067;-68
2022/08/06 08:22:13;;;;;;;3.03;2.63;;;30.40;69.20;;;;;;4165739;28;20546;-66
2022/08/06 08:24:15;;;;;;;4.78;3.15;;;30.40;69.50;;;;;;4161668;28;20472;-63
2022/08/06 08:26:17;;;;;;;5.13;2.65;;;30.40;69.80;;;;;;4167709;28;20551;-66
2022/08/06 08:28:19;;;;;;;4.63;3.03;;;30.40;69.90;;;;;;4157898;28;20091;-65
2022/08/06 08:30:20;;;;;;;6.10;2.83;;;30.40;70.00;;;;;;4144850;28;20053;-66
2022/08/06 08:32:22;;;;;;;3.72;2.88;;;30.40;70.00;;;;;;4160915;28;20477;-62
2022/08/06 08:34:23;;;;;;;8.45;2.58;;;30.40;70.00;;;;;;4164428;28;20114;-64
2022/08/06 08:36:24;;;;;;;3.60;2.70;;;30.40;70.20;;;;;;4162257;28;20041;-64
2022/08/06 08:38:25;;;;;;;3.83;3.20;;;30.40;70.10;;;;;;4164768;28;20195;-64
2022/08/06 08:40:28;;;;;;;2.95;2.67;;;30.60;70.20;;;;;;4162185;28;20068;-62
2022/08/06 08:42:55;;;;;;;3.33;2.50;;;30.70;70.10;;;;;;4160926;28;20475;-63
2022/08/06 08:44:58;;;;;;;6.90;3.30;;;30.90;70.10;;;;;;4158672;28;20493;-61
2022/08/06 08:47:00;;;;;;;8.65;3.55;;;30.90;70.00;;;;;;4159887;28;20017;-67
2022/08/06 08:49:06;;;;;;;4.97;3.30;;;30.80;70.20;;;;;;4169232;28;20045;-65
2022/08/06 08:51:11;;;;;;;8.57;2.90;;;30.80;70.60;;;;;;4166034;28;20053;-60
2022/08/06 08:53:14;;;;;;;2.90;2.65;;;30.60;71.10;;;;;;4163218;28;20083;-67
2022/08/06 08:55:18;;;;;;;4.72;2.80;;;30.70;71.40;;;;;;4164362;28;20052;-61
2022/08/06 08:57:22;;;;;;;5.18;2.67;;;30.90;71.10;;;;;;4164661;28;20042;-68
2022/08/06 08:59:23;;;;;;;8.20;2.60;;;30.90;70.80;;;;;;4166705;28;20419;-68
2022/08/06 09:01:25;;;;;;;3.55;3.10;;;31.10;70.60;;;;;;4160107;28;20033;-72
2022/08/06 09:03:26;;;;;;;7.18;2.78;;;31.10;70.50;;;;;;4164431;28;20164;-67
2022/08/06 09:05:29;;;;;;;4.07;2.50;;;31.40;70.60;;;;;;4164382;28;20079;-72
2022/08/06 09:07:31;;;;;;;6.25;2.97;;;31.40;70.30;;;;;;4165869;28;20029;-62
2022/08/06 09:09:34;;;;;;;5.65;2.80;;;31.40;70.50;;;;;;4160373;28;20045;-60
2022/08/06 09:11:36;;;;;;;4.30;2.95;;;31.30;70.60;;;;;;4163566;28;20533;-70
2022/08/06 09:13:38;;;;;;;5.22;3.05;;;31.20;70.70;;;;;;4165780;28;20029;-63
2022/08/06 09:15:40;;;;;;;5.45;2.75;;;31.10;71.10;;;;;;4165686;28;20408;-63
2022/08/06 09:17:41;;;;;;;4.32;2.60;;;31.10;71.10;;;;;;4161592;28;20029;-62
2022/08/06 09:19:43;;;;;;;5.20;2.55;;;31.10;71.00;;;;;;4171356;28;20099;-64
2022/08/06 09:21:44;;;;;;;4.00;2.90;;;31.20;71.10;;;;;;4166527;28;20103;-63
2022/08/06 09:23:46;;;;;;;3.92;2.50;;;31.30;70.80;;;;;;4176235;28;20457;-64
2022/08/06 09:25:50;;;;;;;3.25;2.45;;;31.30;70.70;;;;;;4176852;28;20057;-64
2022/08/06 09:27:51;;;;;;;3.65;2.33;;;31.40;70.60;;;;;;4176423;28;20530;-70
2022/08/06 09:29:56;;;;;;;3.50;2.60;;;31.70;70.50;;;;;;4176864;28;20465;-64
2022/08/06 09:31:58;;;;;;;5.55;2.75;;;31.90;70.20;;;;;;4160048;28;20515;-64
2022/08/06 09:34:06;;;;;;;2.85;2.58;;;32.20;70.00;;;;;;4160932;28;20470;-65
2022/08/06 09:36:10;;;;;;;5.43;2.17;;;32.40;69.30;;;;;;4158663;28;20053;-64
2022/08/06 09:38:14;;;;;;;2.50;2.30;;;32.30;69.20;;;;;;4160994;28;20041;-68
2022/08/06 09:40:19;;;;;;;4.95;2.70;;;32.10;69.40;;;;;;4172632;28;20032;-63
2022/08/06 09:42:43;;;;;;;3.33;2.60;;;31.90;69.50;;;;;;4176103;28;20099;-68
2022/08/06 09:45:05;;;;;;;2.65;2.45;;;31.70;69.60;;;;;;4175628;28;20025;-63
2022/08/06 09:47:07;;;;;;;10.32;2.75;;;31.70;69.70;;;;;;4164219;28;20113;-65
2022/08/06 09:49:10;;;;;;;3.00;2.55;;;32.00;69.80;;;;;;4162792;28;20099;-65
2022/08/06 09:51:21;;;;;;;4.57;2.55;;;32.00;69.40;;;;;;4163309;28;20080;-67
2022/08/06 09:53:23;;;;;;;4.47;2.28;;;32.00;68.80;;;;;;4144758;28;20076;-64
2022/08/06 09:55:32;;;;;;;3.60;3.10;;;32.00;69.00;;;;;;4163055;28;20091;-64
2022/08/06 09:57:45;;;;;;;12.48;4.35;;;32.10;67.00;;;;;;4162265;28;20033;-66
2022/08/06 09:59:48;;;;;;;20.92;4.40;;;32.10;66.00;;;;;;4163809;28;20025;-65
2022/08/06 10:01:49;;;;;;;5.43;2.88;;;32.00;66.40;;;;;;4163229;28;20025;-65
2022/08/06 10:03:52;;;;;;;20.48;4.40;;;31.90;66.10;;;;;;4163295;28;20099;-65
2022/08/06 10:06:04;;;;;;;30.33;7.38;;;31.90;65.30;;;;;;4163259;28;20041;-72
2022/08/06 10:08:11;;;;;;;16.40;5.10;;;32.10;64.10;;;;;;4162540;28;20075;-64
2022/08/06 10:10:13;;;;;;;15.80;4.45;;;32.00;63.90;;;;;;4163516;28;20033;-65
2022/08/06 10:12:21;;;;;;;9.45;3.17;;;32.00;64.00;;;;;;4163070;28;20088;-64
2022/08/06 10:14:33;;;;;;;3.55;2.60;;;32.00;64.60;;;;;;4163516;28;20048;-66
2022/08/06 10:16:34;;;;;;;5.63;2.65;;;32.10;64.90;;;;;;4163300;28;20492;-72
2022/08/06 10:18:41;;;;;;;3.72;2.17;;;32.20;65.20;;;;;;4162962;28;20079;-63
2022/08/06 10:21:00;;;;;;;9.50;3.08;;;32.20;64.80;;;;;;4162805;28;20531;-68
2022/08/06 10:23:01;;;;;;;27.40;4.93;;;31.90;65.20;;;;;;4144922;28;20065;-63
2022/08/06 10:25:05;;;;;;;7.68;3.55;;;31.90;64.50;;;;;;4162552;28;20084;-68
2022/08/06 10:27:07;;;;;;;8.43;3.15;;;32.00;64.80;;;;;;4163394;28;20107;-63
2022/08/06 10:29:10;;;;;;;2.95;2.13;;;32.10;64.10;;;;;;4162624;28;20083;-63
2022/08/06 10:31:13;;;;;;;7.72;2.97;;;32.10;63.50;;;;;;4163200;28;20420;-63
2022/08/06 10:33:16;;;;;;;1.95;1.73;;;32.20;62.90;;;;;;4162391;28;20022;-69
2022/08/06 10:35:20;;;;;;;4.38;1.77;;;32.20;62.20;;;;;;4162777;28;20029;-70
2022/08/06 10:37:22;;;;;;;3.03;2.15;;;32.10;62.30;;;;;;4162147;28;20041;-64
2022/08/06 10:39:27;;;;;;;15.23;3.50;;;32.10;62.60;;;;;;4163772;28;20087;-62
2022/08/06 10:41:29;;;;;;;6.35;2.60;;;32.20;62.80;;;;;;4162939;28;20029;-64
2022/08/06 10:43:30;;;;;;;3.05;2.70;;;32.50;63.20;;;;;;4163570;28;20087;-63
2022/08/06 10:45:33;;;;;;;6.72;2.63;;;32.70;63.10;;;;;;4162311;28;20033;-63
2022/08/06 10:47:35;;;;;;;3.20;1.88;;;32.90;62.90;;;;;;4163416;28;20029;-63
2022/08/06 10:49:38;;;;;;;23.27;4.47;;;33.00;62.20;;;;;;4161579;28;20452;-62
2022/08/06 10:51:41;;;;;;;2.05;1.85;;;32.90;62.10;;;;;;4163403;28;20481;-63
2022/08/06 10:53:44;;;;;;;5.55;2.10;;;32.80;62.40;;;;;;4161259;28;21089;-63
2022/08/06 10:55:46;;;;;;;6.93;1.95;;;32.80;62.20;;;;;;4162387;28;20453;-68
2022/08/06 10:57:47;;;;;;;3.63;1.77;;;32.50;62.10;;;;;;4162517;28;20029;-63